sensor_id;sensor_type;location;lat;lon;timestamp;P1;durP1;ratioP1;P2;durP2;ratioP2
4074;SDS011;2052;53.522;9.806;2022-08-25T00:02:00;7.90;;;6.20;;
4074;SDS011;2052;53.522;9.806;2022-08-25T00:04:30;11.63;;;5.43;;
4074;SDS011;2052;53.522;9.806;2022-08-25T00:06:59;9.00;;;5.17;;
4074;SDS011;2052;53.522;9.806;2022-08-25T00:09:26;11.97;;;5.53;;
4074;SDS011;2052;53.522;9.806;2022-08-25T00:11:53;10.80;;;5.80;;
4074;SDS011;2052;53.522;9.806;2022-08-25T00:14:21;12.23;;;6.17;;
4074;SDS011;2052;53.522;9.806;2022-08-25T00:16:49;6.70;;;5.97;;
4074;SDS011;2052;53.522;9.806;2022-08-25T00:19:17;8.50;;;5.50;;
4074;SDS011;2052;53.522;9.806;2022-08-25T00:21:47;8.27;;;5.93;;
4074;SDS011;2052;53.522;9.806;2022-08-25T00:24:14;9.67;;;6.20;;
4074;SDS011;2052;53.522;9.806;2022-08-25T00:26:43;6.67;;;5.37;;
4074;SDS011;2052;53.522;9.806;2022-08-25T00:29:12;10.20;;;6.50;;
4074;SDS011;2052;53.522;9.806;2022-08-25T00:31:39;7.73;;;5.77;;
4074;SDS011;2052;53.522;9.806;2022-08-25T00:34:07;8.30;;;5.93;;
4074;SDS011;2052;53.522;9.806;2022-08-25T00:36:35;10.97;;;6.10;;
4074;SDS011;2052;53.522;9.806;2022-08-25T00:39:05;11.33;;;5.80;;
4074;SDS011;2052;53.522;9.806;2022-08-25T00:41:32;8.67;;;6.30;;
4074;SDS011;2052;53.522;9.806;2022-08-25T00:44:00;7.43;;;5.90;;
4074;SDS011;2052;53.522;9.806;2022-08-25T00:46:29;9.17;;;6.37;;
4074;SDS011;2052;53.522;9.806;2022-08-25T00:48:58;6.90;;;6.20;;
4074;SDS011;2052;53.522;9.806;2022-08-25T00:51:28;13.03;;;6.80;;
4074;SDS011;2052;53.522;9.806;2022-08-25T00:53:58;11.60;;;6.40;;
4074;SDS011;2052;53.522;9.806;2022-08-25T00:56:26;10.13;;;6.00;;
4074;SDS011;2052;53.522;9.806;2022-08-25T00:58:55;11.93;;;6.13;;
4074;SDS011;2052;53.522;9.806;2022-08-25T01:01:22;11.83;;;6.80;;
4074;SDS011;2052;53.522;9.806;2022-08-25T01:03:49;10.47;;;7.00;;
4074;SDS011;2052;53.522;9.806;2022-08-25T01:06:16;9.83;;;6.43;;
4074;SDS011;2052;53.522;9.806;2022-08-25T01:08:43;9.83;;;6.03;;
4074;SDS011;2052;53.522;9.806;2022-08-25T01:11:10;11.17;;;6.87;;
4074;SDS011;2052;53.522;9.806;2022-08-25T01:13:40;9.60;;;7.00;;
4074;SDS011;2052;53.522;9.806;2022-08-25T01:16:09;9.57;;;7.10;;
4074;SDS011;2052;53.522;9.806;2022-08-25T01:18:45;8.47;;;6.77;;
4074;SDS011;2052;53.522;9.806;2022-08-25T01:21:15;11.53;;;7.00;;
4074;SDS011;2052;53.522;9.806;2022-08-25T01:23:43;13.00;;;7.13;;
4074;SDS011;2052;53.522;9.806;2022-08-25T01:26:11;10.17;;;7.70;;
4074;SDS011;2052;53.522;9.806;2022-08-25T01:28:41;10.50;;;7.30;;
4074;SDS011;2052;53.522;9.806;2022-08-25T01:31:23;12.40;;;7.37;;
4074;SDS011;2052;53.522;9.806;2022-08-25T01:33:50;10.80;;;7.53;;
4074;SDS011;2052;53.522;9.806;2022-08-25T01:36:19;11.93;;;6.70;;
4074;SDS011;2052;53.522;9.806;2022-08-25T01:38:46;15.60;;;8.03;;
4074;SDS011;2052;53.522;9.806;2022-08-25T01:41:14;14.10;;;7.13;;
4074;SDS011;2052;53.522;9.806;2022-08-25T01:43:42;11.63;;;8.00;;
4074;SDS011;2052;53.522;9.806;2022-08-25T01:46:08;11.57;;;7.77;;
4074;SDS011;2052;53.522;9.806;2022-08-25T01:48:35;13.87;;;8.10;;
4074;SDS011;2052;53.522;9.806;2022-08-25T01:51:02;11.70;;;7.20;;
4074;SDS011;2052;53.522;9.806;2022-08-25T01:53:31;11.43;;;8.20;;
4074;SDS011;2052;53.522;9.806;2022-08-25T01:55:58;11.93;;;7.30;;
4074;SDS011;2052;53.522;9.806;2022-08-25T01:58:27;10.43;;;7.60;;
4074;SDS011;2052;53.522;9.806;2022-08-25T02:00:56;10.70;;;7.67;;
4074;SDS011;2052;53.522;9.806;2022-08-25T02:03:25;11.30;;;7.50;;
4074;SDS011;2052;53.522;9.806;2022-08-25T02:05:53;11.40;;;7.83;;
4074;SDS011;2052;53.522;9.806;2022-08-25T02:08:21;12.80;;;8.50;;
4074;SDS011;2052;53.522;9.806;2022-08-25T02:10:49;12.70;;;8.17;;
4074;SDS011;2052;53.522;9.806;2022-08-25T02:13:17;15.03;;;8.20;;
4074;SDS011;2052;53.522;9.806;2022-08-25T02:15:45;13.03;;;8.00;;
4074;SDS011;2052;53.522;9.806;2022-08-25T02:18:15;11.73;;;8.03;;
4074;SDS011;2052;53.522;9.806;2022-08-25T02:20:42;16.30;;;8.70;;
4074;SDS011;2052;53.522;9.806;2022-08-25T02:23:08;14.47;;;8.73;;
4074;SDS011;2052;53.522;9.806;2022-08-25T02:25:36;12.03;;;8.57;;
4074;SDS011;2052;53.522;9.806;2022-08-25T02:28:05;12.53;;;8.37;;
4074;SDS011;2052;53.522;9.806;2022-08-25T02:30:32;11.50;;;7.83;;
4074;SDS011;2052;53.522;9.806;2022-08-25T02:32:59;12.83;;;8.20;;
4074;SDS011;2052;53.522;9.806;2022-08-25T02:35:26;14.40;;;8.00;;
4074;SDS011;2052;53.522;9.806;2022-08-25T02:37:54;10.13;;;8.17;;
4074;SDS011;2052;53.522;9.806;2022-08-25T02:40:21;11.10;;;7.80;;
4074;SDS011;2052;53.522;9.806;2022-08-25T02:42:48;13.13;;;8.57;;
4074;SDS011;2052;53.522;9.806;2022-08-25T02:45:17;12.03;;;8.27;;
4074;SDS011;2052;53.522;9.806;2022-08-25T02:47:44;13.17;;;7.70;;
4074;SDS011;2052;53.522;9.806;2022-08-25T02:50:11;13.00;;;7.77;;
4074;SDS011;2052;53.522;9.806;2022-08-25T02:52:38;11.27;;;7.40;;
4074;SDS011;2052;53.522;9.806;2022-08-25T02:55:07;11.40;;;7.97;;
4074;SDS011;2052;53.522;9.806;2022-08-25T02:57:38;12.43;;;8.77;;
4074;SDS011;2052;53.522;9.806;2022-08-25T03:00:06;13.30;;;8.83;;
4074;SDS011;2052;53.522;9.806;2022-08-25T03:02:36;9.23;;;7.93;;
4074;SDS011;2052;53.522;9.806;2022-08-25T03:05:03;14.37;;;9.00;;
4074;SDS011;2052;53.522;9.806;2022-08-25T03:07:32;15.43;;;8.30;;
4074;SDS011;2052;53.522;9.806;2022-08-25T03:09:59;10.87;;;8.30;;
4074;SDS011;2052;53.522;9.806;2022-08-25T03:12:25;13.23;;;8.00;;
4074;SDS011;2052;53.522;9.806;2022-08-25T03:14:52;11.40;;;8.30;;
4074;SDS011;2052;53.522;9.806;2022-08-25T03:17:19;13.53;;;9.07;;
4074;SDS011;2052;53.522;9.806;2022-08-25T03:19:47;13.73;;;8.57;;
4074;SDS011;2052;53.522;9.806;2022-08-25T03:22:14;12.90;;;9.23;;
4074;SDS011;2052;53.522;9.806;2022-08-25T03:24:41;10.87;;;8.07;;
4074;SDS011;2052;53.522;9.806;2022-08-25T03:27:07;16.10;;;9.57;;
4074;SDS011;2052;53.522;9.806;2022-08-25T03:29:33;17.63;;;8.30;;
4074;SDS011;2052;53.522;9.806;2022-08-25T03:32:00;13.33;;;9.43;;
4074;SDS011;2052;53.522;9.806;2022-08-25T03:34:28;14.07;;;9.10;;
4074;SDS011;2052;53.522;9.806;2022-08-25T03:36:56;10.37;;;8.50;;
4074;SDS011;2052;53.522;9.806;2022-08-25T03:39:25;18.40;;;8.80;;
4074;SDS011;2052;53.522;9.806;2022-08-25T03:41:53;11.87;;;8.50;;
4074;SDS011;2052;53.522;9.806;2022-08-25T03:44:20;12.50;;;8.90;;
4074;SDS011;2052;53.522;9.806;2022-08-25T03:46:50;9.97;;;7.90;;
4074;SDS011;2052;53.522;9.806;2022-08-25T03:49:21;16.00;;;9.17;;
4074;SDS011;2052;53.522;9.806;2022-08-25T03:51:49;18.27;;;9.53;;
4074;SDS011;2052;53.522;9.806;2022-08-25T03:54:19;15.10;;;9.87;;
4074;SDS011;2052;53.522;9.806;2022-08-25T03:56:47;14.07;;;9.53;;
4074;SDS011;2052;53.522;9.806;2022-08-25T03:59:14;13.10;;;9.33;;
4074;SDS011;2052;53.522;9.806;2022-08-25T04:01:42;19.70;;;9.33;;
4074;SDS011;2052;53.522;9.806;2022-08-25T04:04:10;17.27;;;9.57;;
4074;SDS011;2052;53.522;9.806;2022-08-25T04:06:37;14.90;;;8.00;;
4074;SDS011;2052;53.522;9.806;2022-08-25T04:09:04;12.80;;;9.20;;
4074;SDS011;2052;53.522;9.806;2022-08-25T04:11:32;12.80;;;9.07;;
4074;SDS011;2052;53.522;9.806;2022-08-25T04:13:59;13.70;;;9.73;;
4074;SDS011;2052;53.522;9.806;2022-08-25T04:16:27;13.80;;;9.30;;
4074;SDS011;2052;53.522;9.806;2022-08-25T04:18:56;12.70;;;8.70;;
4074;SDS011;2052;53.522;9.806;2022-08-25T04:21:24;19.43;;;10.43;;
4074;SDS011;2052;53.522;9.806;2022-08-25T04:23:51;14.30;;;10.67;;
4074;SDS011;2052;53.522;9.806;2022-08-25T04:26:21;16.50;;;9.43;;
4074;SDS011;2052;53.522;9.806;2022-08-25T04:28:50;13.20;;;9.17;;
4074;SDS011;2052;53.522;9.806;2022-08-25T04:31:17;17.43;;;10.20;;
4074;SDS011;2052;53.522;9.806;2022-08-25T04:33:44;17.27;;;9.90;;
4074;SDS011;2052;53.522;9.806;2022-08-25T04:36:12;15.83;;;8.97;;
4074;SDS011;2052;53.522;9.806;2022-08-25T04:38:40;14.40;;;10.40;;
4074;SDS011;2052;53.522;9.806;2022-08-25T04:41:08;17.43;;;10.43;;
4074;SDS011;2052;53.522;9.806;2022-08-25T04:43:36;17.43;;;10.00;;
4074;SDS011;2052;53.522;9.806;2022-08-25T04:46:06;18.53;;;9.70;;
4074;SDS011;2052;53.522;9.806;2022-08-25T04:48:32;19.47;;;10.60;;
4074;SDS011;2052;53.522;9.806;2022-08-25T04:51:02;20.20;;;9.27;;
4074;SDS011;2052;53.522;9.806;2022-08-25T04:53:30;18.30;;;9.50;;
4074;SDS011;2052;53.522;9.806;2022-08-25T04:55:57;17.77;;;8.70;;
4074;SDS011;2052;53.522;9.806;2022-08-25T04:58:24;13.50;;;8.00;;
4074;SDS011;2052;53.522;9.806;2022-08-25T05:00:51;12.27;;;7.40;;
4074;SDS011;2052;53.522;9.806;2022-08-25T05:03:19;9.63;;;7.50;;
4074;SDS011;2052;53.522;9.806;2022-08-25T05:05:46;10.80;;;6.60;;
4074;SDS011;2052;53.522;9.806;2022-08-25T05:08:13;7.30;;;5.57;;
4074;SDS011;2052;53.522;9.806;2022-08-25T05:10:40;15.40;;;6.50;;
4074;SDS011;2052;53.522;9.806;2022-08-25T05:13:07;9.47;;;6.23;;
4074;SDS011;2052;53.522;9.806;2022-08-25T05:15:34;9.57;;;5.97;;
4074;SDS011;2052;53.522;9.806;2022-08-25T05:18:16;9.63;;;6.53;;
4074;SDS011;2052;53.522;9.806;2022-08-25T05:20:44;13.10;;;7.37;;
4074;SDS011;2052;53.522;9.806;2022-08-25T05:23:11;8.73;;;5.90;;
4074;SDS011;2052;53.522;9.806;2022-08-25T05:25:38;7.13;;;5.30;;
4074;SDS011;2052;53.522;9.806;2022-08-25T05:28:06;8.10;;;5.67;;
4074;SDS011;2052;53.522;9.806;2022-08-25T05:30:33;9.77;;;5.50;;
4074;SDS011;2052;53.522;9.806;2022-08-25T05:33:03;8.60;;;5.40;;
4074;SDS011;2052;53.522;9.806;2022-08-25T05:35:30;6.80;;;5.30;;
4074;SDS011;2052;53.522;9.806;2022-08-25T05:37:59;17.10;;;6.20;;
4074;SDS011;2052;53.522;9.806;2022-08-25T05:40:25;11.10;;;5.80;;
4074;SDS011;2052;53.522;9.806;2022-08-25T05:42:53;13.23;;;5.13;;
4074;SDS011;2052;53.522;9.806;2022-08-25T05:45:19;8.37;;;4.63;;
4074;SDS011;2052;53.522;9.806;2022-08-25T05:47:47;8.20;;;6.30;;
4074;SDS011;2052;53.522;9.806;2022-08-25T05:50:14;8.63;;;5.17;;
4074;SDS011;2052;53.522;9.806;2022-08-25T05:52:40;6.43;;;5.30;;
4074;SDS011;2052;53.522;9.806;2022-08-25T05:55:10;7.47;;;5.20;;
4074;SDS011;2052;53.522;9.806;2022-08-25T05:57:37;10.00;;;5.40;;
4074;SDS011;2052;53.522;9.806;2022-08-25T06:00:04;7.30;;;5.37;;
4074;SDS011;2052;53.522;9.806;2022-08-25T06:02:32;12.20;;;5.77;;
4074;SDS011;2052;53.522;9.806;2022-08-25T06:05:09;12.70;;;7.50;;
4074;SDS011;2052;53.522;9.806;2022-08-25T06:07:37;17.93;;;6.80;;
4074;SDS011;2052;53.522;9.806;2022-08-25T06:10:05;14.37;;;5.77;;
4074;SDS011;2052;53.522;9.806;2022-08-25T06:12:33;8.73;;;5.37;;
4074;SDS011;2052;53.522;9.806;2022-08-25T06:15:00;8.87;;;5.90;;
4074;SDS011;2052;53.522;9.806;2022-08-25T06:17:27;9.07;;;5.93;;
4074;SDS011;2052;53.522;9.806;2022-08-25T06:19:54;8.90;;;6.30;;
4074;SDS011;2052;53.522;9.806;2022-08-25T06:22:21;7.10;;;5.57;;
4074;SDS011;2052;53.522;9.806;2022-08-25T06:24:49;9.63;;;5.60;;
4074;SDS011;2052;53.522;9.806;2022-08-25T06:27:17;9.43;;;5.80;;
4074;SDS011;2052;53.522;9.806;2022-08-25T06:29:45;8.67;;;6.20;;
4074;SDS011;2052;53.522;9.806;2022-08-25T06:32:12;6.20;;;4.90;;
4074;SDS011;2052;53.522;9.806;2022-08-25T06:34:39;8.20;;;6.10;;
4074;SDS011;2052;53.522;9.806;2022-08-25T06:37:05;8.07;;;5.00;;
4074;SDS011;2052;53.522;9.806;2022-08-25T06:39:32;10.27;;;6.47;;
4074;SDS011;2052;53.522;9.806;2022-08-25T06:41:59;8.73;;;7.10;;
4074;SDS011;2052;53.522;9.806;2022-08-25T06:44:26;9.50;;;7.20;;
4074;SDS011;2052;53.522;9.806;2022-08-25T06:46:55;8.80;;;6.63;;
4074;SDS011;2052;53.522;9.806;2022-08-25T06:49:21;12.93;;;7.50;;
4074;SDS011;2052;53.522;9.806;2022-08-25T06:51:52;10.57;;;8.40;;
4074;SDS011;2052;53.522;9.806;2022-08-25T06:54:18;17.43;;;10.17;;
4074;SDS011;2052;53.522;9.806;2022-08-25T06:56:45;16.97;;;11.10;;
4074;SDS011;2052;53.522;9.806;2022-08-25T06:59:12;18.73;;;12.17;;
4074;SDS011;2052;53.522;9.806;2022-08-25T07:01:39;20.97;;;12.93;;
4074;SDS011;2052;53.522;9.806;2022-08-25T07:04:07;19.70;;;13.70;;
4074;SDS011;2052;53.522;9.806;2022-08-25T07:06:34;22.10;;;14.37;;
4074;SDS011;2052;53.522;9.806;2022-08-25T07:09:02;22.63;;;15.00;;
4074;SDS011;2052;53.522;9.806;2022-08-25T07:11:31;21.67;;;15.73;;
4074;SDS011;2052;53.522;9.806;2022-08-25T07:13:58;22.03;;;14.47;;
4074;SDS011;2052;53.522;9.806;2022-08-25T07:16:27;19.30;;;11.77;;
4074;SDS011;2052;53.522;9.806;2022-08-25T07:18:55;21.67;;;12.83;;
4074;SDS011;2052;53.522;9.806;2022-08-25T07:21:24;25.97;;;16.30;;
4074;SDS011;2052;53.522;9.806;2022-08-25T07:23:52;29.40;;;15.17;;
4074;SDS011;2052;53.522;9.806;2022-08-25T07:26:20;23.97;;;15.23;;
4074;SDS011;2052;53.522;9.806;2022-08-25T07:28:48;22.33;;;14.90;;
4074;SDS011;2052;53.522;9.806;2022-08-25T07:31:15;23.20;;;15.13;;
4074;SDS011;2052;53.522;9.806;2022-08-25T07:33:42;24.80;;;14.77;;
4074;SDS011;2052;53.522;9.806;2022-08-25T07:36:24;22.83;;;13.90;;
4074;SDS011;2052;53.522;9.806;2022-08-25T07:38:51;27.47;;;16.30;;
4074;SDS011;2052;53.522;9.806;2022-08-25T07:41:18;24.17;;;15.10;;
4074;SDS011;2052;53.522;9.806;2022-08-25T07:43:45;24.80;;;17.03;;
4074;SDS011;2052;53.522;9.806;2022-08-25T07:46:13;25.17;;;16.70;;
4074;SDS011;2052;53.522;9.806;2022-08-25T07:48:40;23.97;;;16.27;;
4074;SDS011;2052;53.522;9.806;2022-08-25T07:51:07;25.47;;;16.37;;
4074;SDS011;2052;53.522;9.806;2022-08-25T07:53:37;25.93;;;15.50;;
4074;SDS011;2052;53.522;9.806;2022-08-25T07:56:08;29.00;;;17.40;;
4074;SDS011;2052;53.522;9.806;2022-08-25T07:58:35;34.00;;;18.57;;
4074;SDS011;2052;53.522;9.806;2022-08-25T08:01:02;29.73;;;19.60;;
4074;SDS011;2052;53.522;9.806;2022-08-25T08:06:06;25.33;;;17.90;;
4074;SDS011;2052;53.522;9.806;2022-08-25T08:08:36;31.03;;;18.47;;
4074;SDS011;2052;53.522;9.806;2022-08-25T08:11:03;30.83;;;19.90;;
4074;SDS011;2052;53.522;9.806;2022-08-25T08:13:30;27.70;;;18.40;;
4074;SDS011;2052;53.522;9.806;2022-08-25T08:15:57;33.00;;;19.90;;
4074;SDS011;2052;53.522;9.806;2022-08-25T08:18:23;24.97;;;17.70;;
4074;SDS011;2052;53.522;9.806;2022-08-25T08:20:50;28.57;;;18.47;;
4074;SDS011;2052;53.522;9.806;2022-08-25T08:23:17;30.57;;;20.53;;
4074;SDS011;2052;53.522;9.806;2022-08-25T08:25:45;30.80;;;19.23;;
4074;SDS011;2052;53.522;9.806;2022-08-25T08:28:12;29.00;;;18.43;;
4074;SDS011;2052;53.522;9.806;2022-08-25T08:30:38;26.97;;;19.20;;
4074;SDS011;2052;53.522;9.806;2022-08-25T08:33:05;31.70;;;19.60;;
4074;SDS011;2052;53.522;9.806;2022-08-25T08:35:32;37.87;;;21.40;;
4074;SDS011;2052;53.522;9.806;2022-08-25T08:37:58;35.50;;;21.43;;
4074;SDS011;2052;53.522;9.806;2022-08-25T08:40:25;31.53;;;21.57;;
4074;SDS011;2052;53.522;9.806;2022-08-25T08:42:59;35.73;;;20.90;;
4074;SDS011;2052;53.522;9.806;2022-08-25T08:45:32;35.03;;;20.57;;
4074;SDS011;2052;53.522;9.806;2022-08-25T08:48:16;27.60;;;20.27;;
4074;SDS011;2052;53.522;9.806;2022-08-25T08:50:55;31.30;;;18.97;;
4074;SDS011;2052;53.522;9.806;2022-08-25T08:53:30;27.77;;;18.40;;
4074;SDS011;2052;53.522;9.806;2022-08-25T08:56:01;31.33;;;20.60;;
4074;SDS011;2052;53.522;9.806;2022-08-25T08:58:35;25.77;;;19.00;;
4074;SDS011;2052;53.522;9.806;2022-08-25T09:01:06;29.73;;;20.43;;
4074;SDS011;2052;53.522;9.806;2022-08-25T09:03:34;34.83;;;20.03;;
4074;SDS011;2052;53.522;9.806;2022-08-25T09:06:04;29.80;;;17.30;;
4074;SDS011;2052;53.522;9.806;2022-08-25T09:08:33;28.60;;;18.67;;
4074;SDS011;2052;53.522;9.806;2022-08-25T09:11:01;25.43;;;17.53;;
4074;SDS011;2052;53.522;9.806;2022-08-25T09:13:38;27.60;;;16.93;;
4074;SDS011;2052;53.522;9.806;2022-08-25T09:16:11;25.70;;;16.07;;
4074;SDS011;2052;53.522;9.806;2022-08-25T09:19:01;24.63;;;15.63;;
4074;SDS011;2052;53.522;9.806;2022-08-25T09:21:37;22.13;;;15.57;;
4074;SDS011;2052;53.522;9.806;2022-08-25T09:24:12;21.00;;;14.20;;
4074;SDS011;2052;53.522;9.806;2022-08-25T09:26:51;17.93;;;12.10;;
4074;SDS011;2052;53.522;9.806;2022-08-25T09:29:27;19.63;;;13.70;;
4074;SDS011;2052;53.522;9.806;2022-08-25T09:32:03;23.43;;;14.50;;
4074;SDS011;2052;53.522;9.806;2022-08-25T09:34:32;18.33;;;14.80;;
4074;SDS011;2052;53.522;9.806;2022-08-25T09:36:59;22.57;;;15.43;;
4074;SDS011;2052;53.522;9.806;2022-08-25T09:39:26;22.23;;;16.50;;
4074;SDS011;2052;53.522;9.806;2022-08-25T09:41:54;19.43;;;15.10;;
4074;SDS011;2052;53.522;9.806;2022-08-25T09:44:22;18.50;;;15.00;;
4074;SDS011;2052;53.522;9.806;2022-08-25T09:46:59;20.67;;;15.00;;
4074;SDS011;2052;53.522;9.806;2022-08-25T09:49:33;21.70;;;13.77;;
4074;SDS011;2052;53.522;9.806;2022-08-25T09:54:46;21.83;;;13.97;;
4074;SDS011;2052;53.522;9.806;2022-08-25T09:57:26;22.07;;;14.13;;
4074;SDS011;2052;53.522;9.806;2022-08-25T10:00:08;18.30;;;13.20;;
4074;SDS011;2052;53.522;9.806;2022-08-25T10:02:37;17.67;;;13.10;;
4074;SDS011;2052;53.522;9.806;2022-08-25T10:05:16;21.67;;;15.27;;
4074;SDS011;2052;53.522;9.806;2022-08-25T10:07:47;20.83;;;14.73;;
4074;SDS011;2052;53.522;9.806;2022-08-25T10:10:16;17.27;;;13.20;;
4074;SDS011;2052;53.522;9.806;2022-08-25T10:12:48;18.27;;;13.00;;
4074;SDS011;2052;53.522;9.806;2022-08-25T10:15:15;23.43;;;14.23;;
4074;SDS011;2052;53.522;9.806;2022-08-25T10:17:44;19.40;;;12.70;;
4074;SDS011;2052;53.522;9.806;2022-08-25T10:20:14;19.60;;;14.43;;
4074;SDS011;2052;53.522;9.806;2022-08-25T10:22:44;21.13;;;13.57;;
4074;SDS011;2052;53.522;9.806;2022-08-25T10:25:13;18.70;;;12.90;;
4074;SDS011;2052;53.522;9.806;2022-08-25T10:27:43;15.70;;;11.30;;
4074;SDS011;2052;53.522;9.806;2022-08-25T10:30:16;25.57;;;12.53;;
4074;SDS011;2052;53.522;9.806;2022-08-25T10:32:56;22.03;;;12.63;;
4074;SDS011;2052;53.522;9.806;2022-08-25T10:35:29;22.53;;;12.40;;
4074;SDS011;2052;53.522;9.806;2022-08-25T10:38:02;17.43;;;11.93;;
4074;SDS011;2052;53.522;9.806;2022-08-25T10:40:34;18.13;;;11.33;;
4074;SDS011;2052;53.522;9.806;2022-08-25T10:43:05;15.43;;;8.87;;
4074;SDS011;2052;53.522;9.806;2022-08-25T10:45:34;12.03;;;9.73;;
4074;SDS011;2052;53.522;9.806;2022-08-25T10:51:25;15.23;;;11.33;;
4074;SDS011;2052;53.522;9.806;2022-08-25T10:53:59;16.23;;;10.80;;
4074;SDS011;2052;53.522;9.806;2022-08-25T10:56:33;13.10;;;9.70;;
4074;SDS011;2052;53.522;9.806;2022-08-25T11:05:00;16.43;;;10.20;;
4074;SDS011;2052;53.522;9.806;2022-08-25T11:07:30;13.47;;;9.57;;
4074;SDS011;2052;53.522;9.806;2022-08-25T11:09:59;13.47;;;9.50;;
4074;SDS011;2052;53.522;9.806;2022-08-25T11:12:30;14.77;;;9.80;;
4074;SDS011;2052;53.522;9.806;2022-08-25T11:14:59;13.50;;;9.33;;
4074;SDS011;2052;53.522;9.806;2022-08-25T11:17:31;13.53;;;10.37;;
4074;SDS011;2052;53.522;9.806;2022-08-25T11:20:06;10.50;;;8.40;;
4074;SDS011;2052;53.522;9.806;2022-08-25T11:22:39;13.40;;;9.10;;
4074;SDS011;2052;53.522;9.806;2022-08-25T11:25:10;14.20;;;9.70;;
4074;SDS011;2052;53.522;9.806;2022-08-25T11:27:42;15.60;;;10.27;;
4074;SDS011;2052;53.522;9.806;2022-08-25T11:30:12;13.20;;;8.77;;
4074;SDS011;2052;53.522;9.806;2022-08-25T11:32:43;12.50;;;8.93;;
4074;SDS011;2052;53.522;9.806;2022-08-25T11:35:15;13.00;;;9.43;;
4074;SDS011;2052;53.522;9.806;2022-08-25T11:37:44;9.57;;;8.60;;
4074;SDS011;2052;53.522;9.806;2022-08-25T11:40:31;12.33;;;8.93;;
4074;SDS011;2052;53.522;9.806;2022-08-25T11:43:07;17.67;;;9.63;;
4074;SDS011;2052;53.522;9.806;2022-08-25T11:45:44;14.53;;;8.60;;
4074;SDS011;2052;53.522;9.806;2022-08-25T11:48:19;11.43;;;9.00;;
4074;SDS011;2052;53.522;9.806;2022-08-25T11:50:55;18.00;;;8.00;;
4074;SDS011;2052;53.522;9.806;2022-08-25T11:53:24;13.83;;;8.93;;
4074;SDS011;2052;53.522;9.806;2022-08-25T11:55:53;11.20;;;8.77;;
4074;SDS011;2052;53.522;9.806;2022-08-25T11:58:34;13.90;;;8.17;;
4074;SDS011;2052;53.522;9.806;2022-08-25T12:01:05;9.10;;;7.50;;
4074;SDS011;2052;53.522;9.806;2022-08-25T12:03:45;11.30;;;7.30;;
4074;SDS011;2052;53.522;9.806;2022-08-25T12:06:25;10.90;;;8.27;;
4074;SDS011;2052;53.522;9.806;2022-08-25T12:11:51;9.90;;;7.63;;
4074;SDS011;2052;53.522;9.806;2022-08-25T12:14:40;16.63;;;8.47;;
4074;SDS011;2052;53.522;9.806;2022-08-25T12:17:19;9.50;;;7.23;;
4074;SDS011;2052;53.522;9.806;2022-08-25T12:19:57;12.70;;;7.13;;
4074;SDS011;2052;53.522;9.806;2022-08-25T12:25:37;8.13;;;7.20;;
4074;SDS011;2052;53.522;9.806;2022-08-25T12:28:16;12.23;;;7.00;;
4074;SDS011;2052;53.522;9.806;2022-08-25T12:31:04;11.23;;;6.67;;
4074;SDS011;2052;53.522;9.806;2022-08-25T12:33:37;12.60;;;6.27;;
4074;SDS011;2052;53.522;9.806;2022-08-25T12:36:08;9.03;;;5.83;;
4074;SDS011;2052;53.522;9.806;2022-08-25T12:38:39;6.13;;;4.93;;
4074;SDS011;2052;53.522;9.806;2022-08-25T12:41:10;6.33;;;5.20;;
4074;SDS011;2052;53.522;9.806;2022-08-25T12:43:38;6.60;;;5.03;;
4074;SDS011;2052;53.522;9.806;2022-08-25T12:48:58;6.43;;;5.57;;
4074;SDS011;2052;53.522;9.806;2022-08-25T12:51:26;6.50;;;5.20;;
4074;SDS011;2052;53.522;9.806;2022-08-25T12:53:58;7.47;;;5.70;;
4074;SDS011;2052;53.522;9.806;2022-08-25T12:56:29;8.70;;;5.70;;
4074;SDS011;2052;53.522;9.806;2022-08-25T12:59:10;8.30;;;5.20;;
4074;SDS011;2052;53.522;9.806;2022-08-25T13:01:48;4.90;;;4.40;;
4074;SDS011;2052;53.522;9.806;2022-08-25T13:04:32;8.40;;;4.60;;
4074;SDS011;2052;53.522;9.806;2022-08-25T13:07:11;5.03;;;4.40;;
4074;SDS011;2052;53.522;9.806;2022-08-25T13:12:38;6.57;;;4.90;;
4074;SDS011;2052;53.522;9.806;2022-08-25T13:15:10;11.07;;;4.97;;
4074;SDS011;2052;53.522;9.806;2022-08-25T13:17:38;5.43;;;4.60;;
4074;SDS011;2052;53.522;9.806;2022-08-25T13:20:15;7.17;;;4.87;;
4074;SDS011;2052;53.522;9.806;2022-08-25T13:22:43;5.97;;;4.87;;
4074;SDS011;2052;53.522;9.806;2022-08-25T13:25:15;6.93;;;5.00;;
4074;SDS011;2052;53.522;9.806;2022-08-25T13:27:42;5.30;;;4.70;;
4074;SDS011;2052;53.522;9.806;2022-08-25T13:30:20;7.80;;;5.03;;
4074;SDS011;2052;53.522;9.806;2022-08-25T13:32:49;8.30;;;4.97;;
4074;SDS011;2052;53.522;9.806;2022-08-25T13:35:17;7.17;;;5.43;;
4074;SDS011;2052;53.522;9.806;2022-08-25T13:37:44;6.87;;;5.10;;
4074;SDS011;2052;53.522;9.806;2022-08-25T13:40:10;6.73;;;4.50;;
4074;SDS011;2052;53.522;9.806;2022-08-25T13:42:43;5.13;;;4.43;;
4074;SDS011;2052;53.522;9.806;2022-08-25T13:45:14;9.93;;;4.80;;
4074;SDS011;2052;53.522;9.806;2022-08-25T13:47:43;7.27;;;4.87;;
4074;SDS011;2052;53.522;9.806;2022-08-25T13:50:15;10.60;;;4.20;;
4074;SDS011;2052;53.522;9.806;2022-08-25T13:52:45;4.93;;;4.17;;
4074;SDS011;2052;53.522;9.806;2022-08-25T13:55:18;5.50;;;4.90;;
4074;SDS011;2052;53.522;9.806;2022-08-25T13:57:47;8.73;;;5.13;;
4074;SDS011;2052;53.522;9.806;2022-08-25T14:00:23;13.03;;;4.50;;
4074;SDS011;2052;53.522;9.806;2022-08-25T14:02:52;5.27;;;4.20;;
4074;SDS011;2052;53.522;9.806;2022-08-25T14:05:28;4.63;;;4.13;;
4074;SDS011;2052;53.522;9.806;2022-08-25T14:07:57;4.90;;;4.27;;
4074;SDS011;2052;53.522;9.806;2022-08-25T14:10:31;7.70;;;5.20;;
4074;SDS011;2052;53.522;9.806;2022-08-25T14:13:07;4.80;;;4.20;;
4074;SDS011;2052;53.522;9.806;2022-08-25T14:15:36;5.70;;;5.00;;
4074;SDS011;2052;53.522;9.806;2022-08-25T14:18:05;8.07;;;4.57;;
4074;SDS011;2052;53.522;9.806;2022-08-25T14:20:34;6.10;;;4.37;;
4074;SDS011;2052;53.522;9.806;2022-08-25T14:23:03;6.57;;;4.90;;
4074;SDS011;2052;53.522;9.806;2022-08-25T14:25:32;5.57;;;4.27;;
4074;SDS011;2052;53.522;9.806;2022-08-25T14:28:00;5.23;;;4.73;;
4074;SDS011;2052;53.522;9.806;2022-08-25T14:30:30;6.30;;;4.93;;
4074;SDS011;2052;53.522;9.806;2022-08-25T14:32:59;5.30;;;4.67;;
4074;SDS011;2052;53.522;9.806;2022-08-25T14:35:26;11.50;;;5.17;;
4074;SDS011;2052;53.522;9.806;2022-08-25T14:37:53;5.97;;;4.57;;
4074;SDS011;2052;53.522;9.806;2022-08-25T14:40:20;7.50;;;5.10;;
4074;SDS011;2052;53.522;9.806;2022-08-25T14:42:47;7.37;;;4.80;;
4074;SDS011;2052;53.522;9.806;2022-08-25T14:45:15;8.13;;;5.00;;
4074;SDS011;2052;53.522;9.806;2022-08-25T14:47:44;5.40;;;4.47;;
4074;SDS011;2052;53.522;9.806;2022-08-25T14:50:11;6.53;;;4.57;;
4074;SDS011;2052;53.522;9.806;2022-08-25T14:52:39;6.83;;;4.80;;
4074;SDS011;2052;53.522;9.806;2022-08-25T14:55:07;6.13;;;5.10;;
4074;SDS011;2052;53.522;9.806;2022-08-25T14:57:35;8.83;;;5.57;;
4074;SDS011;2052;53.522;9.806;2022-08-25T15:00:02;6.20;;;4.80;;
4074;SDS011;2052;53.522;9.806;2022-08-25T15:02:30;8.53;;;4.53;;
4074;SDS011;2052;53.522;9.806;2022-08-25T15:05:01;6.60;;;4.63;;
4074;SDS011;2052;53.522;9.806;2022-08-25T15:07:31;5.33;;;4.70;;
4074;SDS011;2052;53.522;9.806;2022-08-25T15:10:15;6.90;;;5.13;;
4074;SDS011;2052;53.522;9.806;2022-08-25T15:12:43;5.90;;;4.57;;
4074;SDS011;2052;53.522;9.806;2022-08-25T15:15:09;6.00;;;5.30;;
4074;SDS011;2052;53.522;9.806;2022-08-25T15:17:36;16.73;;;5.13;;
4074;SDS011;2052;53.522;9.806;2022-08-25T15:20:06;5.90;;;4.90;;
4074;SDS011;2052;53.522;9.806;2022-08-25T15:22:33;6.13;;;4.83;;
4074;SDS011;2052;53.522;9.806;2022-08-25T15:25:00;10.40;;;4.80;;
4074;SDS011;2052;53.522;9.806;2022-08-25T15:27:26;11.37;;;4.53;;
4074;SDS011;2052;53.522;9.806;2022-08-25T15:29:53;9.00;;;4.83;;
4074;SDS011;2052;53.522;9.806;2022-08-25T15:32:20;5.40;;;4.33;;
4074;SDS011;2052;53.522;9.806;2022-08-25T15:34:46;6.53;;;5.33;;
4074;SDS011;2052;53.522;9.806;2022-08-25T15:37:14;8.23;;;5.10;;
4074;SDS011;2052;53.522;9.806;2022-08-25T15:39:42;7.13;;;4.33;;
4074;SDS011;2052;53.522;9.806;2022-08-25T15:42:10;7.17;;;5.10;;
4074;SDS011;2052;53.522;9.806;2022-08-25T15:44:38;7.63;;;5.13;;